sensor_id;sensor_type;location;lat;lon;timestamp;P1;durP1;ratioP1;P2;durP2;ratioP2
20593;SDS011;10455;48.732;10.266;2023-03-01T00:02:52;39.40;;;26.70;;
20593;SDS011;10455;48.732;10.266;2023-03-01T00:07:54;35.57;;;23.77;;
20593;SDS011;10455;48.732;10.266;2023-03-01T00:12:57;38.40;;;25.47;;
20593;SDS011;10455;48.732;10.266;2023-03-01T00:17:59;38.63;;;25.93;;
20593;SDS011;10455;48.732;10.266;2023-03-01T00:23:01;31.50;;;22.30;;
20593;SDS011;10455;48.732;10.266;2023-03-01T00:28:04;35.30;;;23.20;;
20593;SDS011;10455;48.732;10.266;2023-03-01T00:33:06;38.40;;;24.80;;
20593;SDS011;10455;48.732;10.266;2023-03-01T00:38:08;36.20;;;23.17;;
20593;SDS011;10455;48.732;10.266;2023-03-01T00:43:11;36.57;;;24.20;;
20593;SDS011;10455;48.732;10.266;2023-03-01T00:48:13;37.40;;;25.10;;
20593;SDS011;10455;48.732;10.266;2023-03-01T00:53:15;41.53;;;26.23;;
20593;SDS011;10455;48.732;10.266;2023-03-01T00:58:18;37.57;;;25.00;;
20593;SDS011;10455;48.732;10.266;2023-03-01T01:03:20;41.00;;;25.83;;
20593;SDS011;10455;48.732;10.266;2023-03-01T01:08:24;34.20;;;23.87;;
20593;SDS011;10455;48.732;10.266;2023-03-01T01:13:28;39.33;;;24.70;;
20593;SDS011;10455;48.732;10.266;2023-03-01T01:18:29;37.97;;;25.00;;
20593;SDS011;10455;48.732;10.266;2023-03-01T01:23:31;33.50;;;22.90;;
20593;SDS011;10455;48.732;10.266;2023-03-01T01:28:35;36.70;;;23.87;;
20593;SDS011;10455;48.732;10.266;2023-03-01T01:33:37;38.07;;;23.93;;
20593;SDS011;10455;48.732;10.266;2023-03-01T01:38:39;36.87;;;25.03;;
20593;SDS011;10455;48.732;10.266;2023-03-01T01:43:44;35.97;;;24.73;;
20593;SDS011;10455;48.732;10.266;2023-03-01T01:48:48;36.37;;;24.53;;
20593;SDS011;10455;48.732;10.266;2023-03-01T01:53:55;35.60;;;24.43;;
20593;SDS011;10455;48.732;10.266;2023-03-01T01:59:02;37.53;;;24.87;;
20593;SDS011;10455;48.732;10.266;2023-03-01T02:04:05;41.17;;;26.40;;
20593;SDS011;10455;48.732;10.266;2023-03-01T02:09:08;39.50;;;25.57;;
20593;SDS011;10455;48.732;10.266;2023-03-01T02:14:15;37.53;;;24.63;;
20593;SDS011;10455;48.732;10.266;2023-03-01T02:19:21;32.73;;;24.30;;
20593;SDS011;10455;48.732;10.266;2023-03-01T02:24:31;38.10;;;24.77;;
20593;SDS011;10455;48.732;10.266;2023-03-01T02:29:41;36.77;;;24.00;;
20593;SDS011;10455;48.732;10.266;2023-03-01T02:34:44;37.47;;;26.60;;
20593;SDS011;10455;48.732;10.266;2023-03-01T02:39:46;39.20;;;25.50;;
20593;SDS011;10455;48.732;10.266;2023-03-01T02:44:51;36.60;;;24.90;;
20593;SDS011;10455;48.732;10.266;2023-03-01T02:49:53;37.07;;;25.87;;
20593;SDS011;10455;48.732;10.266;2023-03-01T02:54:57;38.27;;;26.50;;
20593;SDS011;10455;48.732;10.266;2023-03-01T03:00:05;40.33;;;26.60;;
20593;SDS011;10455;48.732;10.266;2023-03-01T03:05:10;38.70;;;26.53;;
20593;SDS011;10455;48.732;10.266;2023-03-01T03:10:14;39.80;;;25.90;;
20593;SDS011;10455;48.732;10.266;2023-03-01T03:15:21;38.23;;;26.60;;
20593;SDS011;10455;48.732;10.266;2023-03-01T03:20:24;40.43;;;26.00;;
20593;SDS011;10455;48.732;10.266;2023-03-01T03:25:27;39.27;;;26.60;;
20593;SDS011;10455;48.732;10.266;2023-03-01T03:30:31;37.60;;;25.63;;
20593;SDS011;10455;48.732;10.266;2023-03-01T03:35:34;38.13;;;26.17;;
20593;SDS011;10455;48.732;10.266;2023-03-01T03:40:40;34.87;;;25.83;;
20593;SDS011;10455;48.732;10.266;2023-03-01T03:45:45;37.47;;;26.77;;
20593;SDS011;10455;48.732;10.266;2023-03-01T03:50:48;38.83;;;26.17;;
20593;SDS011;10455;48.732;10.266;2023-03-01T03:55:52;36.17;;;25.13;;
20593;SDS011;10455;48.732;10.266;2023-03-01T04:00:56;39.13;;;25.93;;
20593;SDS011;10455;48.732;10.266;2023-03-01T04:05:59;42.00;;;26.47;;
20593;SDS011;10455;48.732;10.266;2023-03-01T04:11:03;35.50;;;25.27;;
20593;SDS011;10455;48.732;10.266;2023-03-01T04:16:21;41.00;;;27.07;;
20593;SDS011;10455;48.732;10.266;2023-03-01T04:21:24;40.83;;;26.10;;
20593;SDS011;10455;48.732;10.266;2023-03-01T04:26:26;41.70;;;26.93;;
20593;SDS011;10455;48.732;10.266;2023-03-01T04:31:29;37.67;;;26.63;;
20593;SDS011;10455;48.732;10.266;2023-03-01T04:36:31;36.03;;;25.23;;
20593;SDS011;10455;48.732;10.266;2023-03-01T04:41:35;47.43;;;31.97;;
20593;SDS011;10455;48.732;10.266;2023-03-01T04:46:39;39.30;;;27.30;;
20593;SDS011;10455;48.732;10.266;2023-03-01T04:51:41;40.37;;;26.70;;
20593;SDS011;10455;48.732;10.266;2023-03-01T04:56:43;38.10;;;26.90;;
20593;SDS011;10455;48.732;10.266;2023-03-01T05:01:46;40.60;;;27.07;;
20593;SDS011;10455;48.732;10.266;2023-03-01T05:06:48;38.73;;;28.17;;
20593;SDS011;10455;48.732;10.266;2023-03-01T05:11:50;41.07;;;28.87;;
20593;SDS011;10455;48.732;10.266;2023-03-01T05:16:53;43.83;;;28.43;;
20593;SDS011;10455;48.732;10.266;2023-03-01T05:21:55;44.00;;;27.90;;
20593;SDS011;10455;48.732;10.266;2023-03-01T05:27:03;46.70;;;29.53;;
20593;SDS011;10455;48.732;10.266;2023-03-01T05:32:07;42.37;;;27.90;;
20593;SDS011;10455;48.732;10.266;2023-03-01T05:37:14;46.70;;;29.50;;
20593;SDS011;10455;48.732;10.266;2023-03-01T05:42:17;49.87;;;29.70;;
20593;SDS011;10455;48.732;10.266;2023-03-01T05:47:20;43.53;;;28.87;;
20593;SDS011;10455;48.732;10.266;2023-03-01T05:52:22;49.03;;;30.53;;
20593;SDS011;10455;48.732;10.266;2023-03-01T05:57:24;46.93;;;29.50;;
20593;SDS011;10455;48.732;10.266;2023-03-01T06:02:27;53.67;;;31.97;;
20593;SDS011;10455;48.732;10.266;2023-03-01T06:07:29;50.63;;;31.33;;
20593;SDS011;10455;48.732;10.266;2023-03-01T06:12:31;47.90;;;30.63;;
20593;SDS011;10455;48.732;10.266;2023-03-01T06:17:35;56.70;;;32.40;;
20593;SDS011;10455;48.732;10.266;2023-03-01T06:22:38;53.33;;;33.97;;
20593;SDS011;10455;48.732;10.266;2023-03-01T06:27:40;50.47;;;30.93;;
20593;SDS011;10455;48.732;10.266;2023-03-01T06:32:44;49.57;;;32.77;;
20593;SDS011;10455;48.732;10.266;2023-03-01T06:37:46;47.80;;;30.87;;
20593;SDS011;10455;48.732;10.266;2023-03-01T06:42:49;43.43;;;29.77;;
20593;SDS011;10455;48.732;10.266;2023-03-01T06:47:57;38.57;;;27.67;;
20593;SDS011;10455;48.732;10.266;2023-03-01T06:53:04;34.40;;;26.00;;
20593;SDS011;10455;48.732;10.266;2023-03-01T06:58:06;35.07;;;25.27;;
20593;SDS011;10455;48.732;10.266;2023-03-01T07:03:09;32.13;;;24.40;;
20593;SDS011;10455;48.732;10.266;2023-03-01T07:08:11;29.73;;;23.17;;
20593;SDS011;10455;48.732;10.266;2023-03-01T07:13:13;33.00;;;25.10;;
20593;SDS011;10455;48.732;10.266;2023-03-01T07:18:16;31.33;;;24.37;;
20593;SDS011;10455;48.732;10.266;2023-03-01T07:23:18;29.50;;;23.97;;
20593;SDS011;10455;48.732;10.266;2023-03-01T07:28:20;29.60;;;22.20;;
20593;SDS011;10455;48.732;10.266;2023-03-01T07:33:24;33.17;;;23.73;;
20593;SDS011;10455;48.732;10.266;2023-03-01T07:38:26;31.57;;;23.77;;
20593;SDS011;10455;48.732;10.266;2023-03-01T07:43:29;28.93;;;21.70;;
20593;SDS011;10455;48.732;10.266;2023-03-01T07:48:32;29.97;;;24.93;;
20593;SDS011;10455;48.732;10.266;2023-03-01T07:53:34;27.50;;;22.40;;
20593;SDS011;10455;48.732;10.266;2023-03-01T07:58:36;34.50;;;22.43;;
20593;SDS011;10455;48.732;10.266;2023-03-01T08:03:41;27.43;;;21.73;;
20593;SDS011;10455;48.732;10.266;2023-03-01T08:08:43;28.47;;;21.17;;
20593;SDS011;10455;48.732;10.266;2023-03-01T08:13:46;24.93;;;21.37;;
20593;SDS011;10455;48.732;10.266;2023-03-01T08:18:51;28.60;;;22.10;;
20593;SDS011;10455;48.732;10.266;2023-03-01T08:23:54;25.63;;;21.43;;
20593;SDS011;10455;48.732;10.266;2023-03-01T08:28:56;27.70;;;22.77;;
20593;SDS011;10455;48.732;10.266;2023-03-01T08:33:59;26.60;;;21.00;;
20593;SDS011;10455;48.732;10.266;2023-03-01T08:39:03;26.67;;;22.30;;
20593;SDS011;10455;48.732;10.266;2023-03-01T08:44:05;23.90;;;21.03;;
20593;SDS011;10455;48.732;10.266;2023-03-01T08:49:10;24.83;;;19.93;;
20593;SDS011;10455;48.732;10.266;2023-03-01T08:54:14;26.47;;;20.70;;
20593;SDS011;10455;48.732;10.266;2023-03-01T08:59:18;25.90;;;19.53;;
20593;SDS011;10455;48.732;10.266;2023-03-01T09:04:21;24.53;;;20.90;;
20593;SDS011;10455;48.732;10.266;2023-03-01T09:09:23;27.07;;;20.77;;
20593;SDS011;10455;48.732;10.266;2023-03-01T09:14:25;26.97;;;19.73;;
20593;SDS011;10455;48.732;10.266;2023-03-01T09:19:29;28.73;;;22.37;;
20593;SDS011;10455;48.732;10.266;2023-03-01T09:24:30;29.87;;;22.87;;
20593;SDS011;10455;48.732;10.266;2023-03-01T09:29:32;24.80;;;21.40;;
20593;SDS011;10455;48.732;10.266;2023-03-01T09:34:35;26.93;;;20.23;;
20593;SDS011;10455;48.732;10.266;2023-03-01T09:39:58;24.80;;;20.97;;
20593;SDS011;10455;48.732;10.266;2023-03-01T09:45:00;26.10;;;21.27;;
20593;SDS011;10455;48.732;10.266;2023-03-01T09:50:10;25.13;;;20.60;;
20593;SDS011;10455;48.732;10.266;2023-03-01T09:55:17;27.20;;;21.67;;
20593;SDS011;10455;48.732;10.266;2023-03-01T10:00:30;27.30;;;21.37;;
20593;SDS011;10455;48.732;10.266;2023-03-01T10:05:43;21.70;;;19.30;;
20593;SDS011;10455;48.732;10.266;2023-03-01T10:10:53;23.07;;;17.73;;
20593;SDS011;10455;48.732;10.266;2023-03-01T10:15:56;20.63;;;17.87;;
20593;SDS011;10455;48.732;10.266;2023-03-01T10:21:07;22.77;;;18.03;;
20593;SDS011;10455;48.732;10.266;2023-03-01T10:26:19;21.47;;;18.30;;
20593;SDS011;10455;48.732;10.266;2023-03-01T10:31:34;18.90;;;16.57;;
20593;SDS011;10455;48.732;10.266;2023-03-01T10:36:42;22.00;;;17.33;;
20593;SDS011;10455;48.732;10.266;2023-03-01T10:41:55;17.87;;;15.97;;
20593;SDS011;10455;48.732;10.266;2023-03-01T10:46:59;20.00;;;17.20;;
20593;SDS011;10455;48.732;10.266;2023-03-01T10:52:16;21.03;;;17.93;;
20593;SDS011;10455;48.732;10.266;2023-03-01T10:57:31;19.77;;;16.57;;
20593;SDS011;10455;48.732;10.266;2023-03-01T11:02:36;21.02;;;17.63;;
20593;SDS011;10455;48.732;10.266;2023-03-01T11:07:47;18.33;;;16.35;;
20593;SDS011;10455;48.732;10.266;2023-03-01T11:12:51;19.73;;;17.35;;
20593;SDS011;10455;48.732;10.266;2023-03-01T11:17:53;21.05;;;17.52;;
20593;SDS011;10455;48.732;10.266;2023-03-01T11:22:59;19.60;;;17.10;;
20593;SDS011;10455;48.732;10.266;2023-03-01T11:28:05;18.67;;;16.57;;
20593;SDS011;10455;48.732;10.266;2023-03-01T11:33:13;18.60;;;16.00;;
20593;SDS011;10455;48.732;10.266;2023-03-01T11:38:22;19.35;;;16.48;;
20593;SDS011;10455;48.732;10.266;2023-03-01T11:43:27;19.30;;;15.30;;
20593;SDS011;10455;48.732;10.266;2023-03-01T11:48:38;18.77;;;15.95;;
20593;SDS011;10455;48.732;10.266;2023-03-01T11:53:53;23.03;;;16.10;;
20593;SDS011;10455;48.732;10.266;2023-03-01T11:59:06;17.47;;;15.60;;
20593;SDS011;10455;48.732;10.266;2023-03-01T12:09:59;16.83;;;14.50;;
20593;SDS011;10455;48.732;10.266;2023-03-01T12:15:31;15.90;;;13.45;;
20593;SDS011;10455;48.732;10.266;2023-03-01T12:20:41;15.70;;;13.60;;
20593;SDS011;10455;48.732;10.266;2023-03-01T12:25:52;17.00;;;13.97;;
20593;SDS011;10455;48.732;10.266;2023-03-01T12:36:38;15.93;;;13.90;;
20593;SDS011;10455;48.732;10.266;2023-03-01T12:41:51;15.47;;;13.57;;
20593;SDS011;10455;48.732;10.266;2023-03-01T12:47:05;20.30;;;14.23;;
20593;SDS011;10455;48.732;10.266;2023-03-01T12:52:17;14.52;;;12.68;;
20593;SDS011;10455;48.732;10.266;2023-03-01T12:57:26;16.50;;;13.63;;
20593;SDS011;10455;48.732;10.266;2023-03-01T13:02:37;16.47;;;14.37;;
20593;SDS011;10455;48.732;10.266;2023-03-01T13:07:50;15.35;;;13.75;;
20593;SDS011;10455;48.732;10.266;2023-03-01T13:13:08;17.17;;;13.68;;
20593;SDS011;10455;48.732;10.266;2023-03-01T13:18:30;17.95;;;14.65;;
20593;SDS011;10455;48.732;10.266;2023-03-01T13:23:34;17.80;;;15.50;;
20593;SDS011;10455;48.732;10.266;2023-03-01T13:28:49;19.67;;;14.75;;
20593;SDS011;10455;48.732;10.266;2023-03-01T13:33:57;19.30;;;14.93;;
20593;SDS011;10455;48.732;10.266;2023-03-01T13:39:00;16.33;;;14.25;;
20593;SDS011;10455;48.732;10.266;2023-03-01T13:44:11;18.38;;;15.05;;
20593;SDS011;10455;48.732;10.266;2023-03-01T13:49:14;16.75;;;14.10;;
20593;SDS011;10455;48.732;10.266;2023-03-01T13:54:22;15.98;;;14.27;;
20593;SDS011;10455;48.732;10.266;2023-03-01T13:59:30;17.58;;;14.50;;
20593;SDS011;10455;48.732;10.266;2023-03-01T14:04:33;16.88;;;15.13;;
20593;SDS011;10455;48.732;10.266;2023-03-01T14:09:36;18.25;;;15.88;;
20593;SDS011;10455;48.732;10.266;2023-03-01T14:14:47;17.05;;;15.07;;
20593;SDS011;10455;48.732;10.266;2023-03-01T14:19:54;21.08;;;16.38;;
20593;SDS011;10455;48.732;10.266;2023-03-01T14:24:59;18.80;;;16.70;;
20593;SDS011;10455;48.732;10.266;2023-03-01T14:30:09;17.52;;;15.35;;
20593;SDS011;10455;48.732;10.266;2023-03-01T14:35:19;18.55;;;15.13;;
20593;SDS011;10455;48.732;10.266;2023-03-01T14:40:24;17.80;;;14.43;;
20593;SDS011;10455;48.732;10.266;2023-03-01T14:45:29;20.77;;;15.40;;
20593;SDS011;10455;48.732;10.266;2023-03-01T14:50:32;16.33;;;14.63;;
20593;SDS011;10455;48.732;10.266;2023-03-01T14:55:35;21.75;;;14.77;;
20593;SDS011;10455;48.732;10.266;2023-03-01T15:00:45;19.00;;;15.25;;
20593;SDS011;10455;48.732;10.266;2023-03-01T15:05:50;19.35;;;15.70;;
20593;SDS011;10455;48.732;10.266;2023-03-01T15:10:58;18.20;;;14.20;;
20593;SDS011;10455;48.732;10.266;2023-03-01T15:16:06;17.37;;;14.70;;
20593;SDS011;10455;48.732;10.266;2023-03-01T15:21:15;19.97;;;16.00;;
20593;SDS011;10455;48.732;10.266;2023-03-01T15:26:22;17.40;;;14.87;;
20593;SDS011;10455;48.732;10.266;2023-03-01T15:31:28;18.43;;;14.17;;
20593;SDS011;10455;48.732;10.266;2023-03-01T15:36:42;16.87;;;13.87;;
20593;SDS011;10455;48.732;10.266;2023-03-01T15:41:46;16.00;;;14.07;;
20593;SDS011;10455;48.732;10.266;2023-03-01T15:46:50;19.23;;;14.77;;
20593;SDS011;10455;48.732;10.266;2023-03-01T15:51:53;17.80;;;13.93;;
20593;SDS011;10455;48.732;10.266;2023-03-01T15:56:55;16.97;;;13.83;;
20593;SDS011;10455;48.732;10.266;2023-03-01T16:01:59;17.00;;;13.83;;
20593;SDS011;10455;48.732;10.266;2023-03-01T16:07:01;17.97;;;14.10;;
20593;SDS011;10455;48.732;10.266;2023-03-01T16:12:03;18.40;;;14.20;;
20593;SDS011;10455;48.732;10.266;2023-03-01T16:17:07;20.63;;;14.47;;
20593;SDS011;10455;48.732;10.266;2023-03-01T16:22:10;27.67;;;19.10;;
20593;SDS011;10455;48.732;10.266;2023-03-01T16:27:12;23.67;;;16.97;;
20593;SDS011;10455;48.732;10.266;2023-03-01T16:32:16;23.47;;;16.00;;
20593;SDS011;10455;48.732;10.266;2023-03-01T16:37:18;22.73;;;17.63;;
20593;SDS011;10455;48.732;10.266;2023-03-01T16:42:21;28.57;;;19.70;;
20593;SDS011;10455;48.732;10.266;2023-03-01T16:47:25;28.70;;;18.03;;
20593;SDS011;10455;48.732;10.266;2023-03-01T16:52:27;25.93;;;18.63;;
20593;SDS011;10455;48.732;10.266;2023-03-01T16:57:29;23.77;;;17.27;;
20593;SDS011;10455;48.732;10.266;2023-03-01T17:02:32;21.93;;;17.93;;
20593;SDS011;10455;48.732;10.266;2023-03-01T17:07:35;24.03;;;17.53;;
20593;SDS011;10455;48.732;10.266;2023-03-01T17:12:37;22.60;;;17.30;;
20593;SDS011;10455;48.732;10.266;2023-03-01T17:17:40;26.13;;;17.17;;
20593;SDS011;10455;48.732;10.266;2023-03-01T17:22:42;27.20;;;19.27;;
20593;SDS011;10455;48.732;10.266;2023-03-01T17:27:44;29.37;;;19.83;;
20593;SDS011;10455;48.732;10.266;2023-03-01T17:32:47;26.20;;;19.63;;
20593;SDS011;10455;48.732;10.266;2023-03-01T17:37:49;63.30;;;35.47;;
20593;SDS011;10455;48.732;10.266;2023-03-01T17:42:51;46.47;;;28.40;;
20593;SDS011;10455;48.732;10.266;2023-03-01T17:47:54;28.50;;;20.77;;
20593;SDS011;10455;48.732;10.266;2023-03-01T17:52:56;34.03;;;22.47;;
20593;SDS011;10455;48.732;10.266;2023-03-01T17:57:58;36.67;;;24.93;;
20593;SDS011;10455;48.732;10.266;2023-03-01T18:03:02;40.00;;;28.13;;
20593;SDS011;10455;48.732;10.266;2023-03-01T18:08:04;33.43;;;22.90;;
20593;SDS011;10455;48.732;10.266;2023-03-01T18:13:06;31.70;;;22.53;;
20593;SDS011;10455;48.732;10.266;2023-03-01T18:18:09;32.37;;;23.53;;
20593;SDS011;10455;48.732;10.266;2023-03-01T18:23:11;37.60;;;24.53;;
20593;SDS011;10455;48.732;10.266;2023-03-01T18:28:13;40.03;;;24.73;;
20593;SDS011;10455;48.732;10.266;2023-03-01T18:33:16;35.80;;;25.87;;
20593;SDS011;10455;48.732;10.266;2023-03-01T18:38:18;37.40;;;27.40;;
20593;SDS011;10455;48.732;10.266;2023-03-01T18:43:20;36.97;;;26.57;;
20593;SDS011;10455;48.732;10.266;2023-03-01T18:48:24;41.67;;;28.10;;
20593;SDS011;10455;48.732;10.266;2023-03-01T18:53:26;39.30;;;25.17;;
20593;SDS011;10455;48.732;10.266;2023-03-01T18:58:28;37.67;;;25.43;;
20593;SDS011;10455;48.732;10.266;2023-03-01T19:03:32;56.27;;;35.13;;
20593;SDS011;10455;48.732;10.266;2023-03-01T19:08:34;40.40;;;26.70;;
20593;SDS011;10455;48.732;10.266;2023-03-01T19:13:37;38.40;;;27.47;;
20593;SDS011;10455;48.732;10.266;2023-03-01T19:18:41;38.03;;;25.90;;
20593;SDS011;10455;48.732;10.266;2023-03-01T19:23:49;42.13;;;26.67;;
20593;SDS011;10455;48.732;10.266;2023-03-01T19:28:51;38.63;;;24.87;;
20593;SDS011;10455;48.732;10.266;2023-03-01T19:33:56;36.37;;;26.73;;
20593;SDS011;10455;48.732;10.266;2023-03-01T19:38:58;38.80;;;26.27;;
20593;SDS011;10455;48.732;10.266;2023-03-01T19:44:01;39.97;;;27.13;;
20593;SDS011;10455;48.732;10.266;2023-03-01T19:49:06;39.90;;;27.43;;
20593;SDS011;10455;48.732;10.266;2023-03-01T19:54:08;41.03;;;26.37;;
20593;SDS011;10455;48.732;10.266;2023-03-01T19:59:11;38.57;;;26.73;;
20593;SDS011;10455;48.732;10.266;2023-03-01T20:04:15;38.30;;;26.83;;
20593;SDS011;10455;48.732;10.266;2023-03-01T20:09:17;42.70;;;27.70;;
20593;SDS011;10455;48.732;10.266;2023-03-01T20:14:18;52.87;;;33.03;;
20593;SDS011;10455;48.732;10.266;2023-03-01T20:19:23;43.00;;;28.17;;
20593;SDS011;10455;48.732;10.266;2023-03-01T20:24:25;44.83;;;29.60;;
20593;SDS011;10455;48.732;10.266;2023-03-01T20:29:26;41.73;;;27.50;;
20593;SDS011;10455;48.732;10.266;2023-03-01T20:34:30;63.10;;;38.80;;
20593;SDS011;10455;48.732;10.266;2023-03-01T20:39:31;45.03;;;29.17;;
20593;SDS011;10455;48.732;10.266;2023-03-01T20:44:33;98.27;;;46.07;;
20593;SDS011;10455;48.732;10.266;2023-03-01T20:49:43;165.67;;;72.00;;
20593;SDS011;10455;48.732;10.266;2023-03-01T20:54:45;130.60;;;63.30;;
20593;SDS011;10455;48.732;10.266;2023-03-01T20:59:47;44.87;;;29.87;;
20593;SDS011;10455;48.732;10.266;2023-03-01T21:04:50;43.93;;;29.30;;
20593;SDS011;10455;48.732;10.266;2023-03-01T21:09:52;44.50;;;28.20;;
20593;SDS011;10455;48.732;10.266;2023-03-01T21:14:54;45.97;;;29.17;;
20593;SDS011;10455;48.732;10.266;2023-03-01T21:19:57;43.37;;;28.57;;
20593;SDS011;10455;48.732;10.266;2023-03-01T21:24:59;43.40;;;28.17;;
20593;SDS011;10455;48.732;10.266;2023-03-01T21:30:01;44.07;;;28.80;;
20593;SDS011;10455;48.732;10.266;2023-03-01T21:35:05;44.37;;;30.10;;
20593;SDS011;10455;48.732;10.266;2023-03-01T21:40:08;46.33;;;29.13;;
20593;SDS011;10455;48.732;10.266;2023-03-01T21:45:10;42.57;;;27.53;;
20593;SDS011;10455;48.732;10.266;2023-03-01T21:50:14;50.60;;;30.13;;
20593;SDS011;10455;48.732;10.266;2023-03-01T21:55:16;46.53;;;29.73;;
20593;SDS011;10455;48.732;10.266;2023-03-01T22:00:18;48.53;;;29.47;;
20593;SDS011;10455;48.732;10.266;2023-03-01T22:05:23;44.77;;;29.10;;
20593;SDS011;10455;48.732;10.266;2023-03-01T22:10:25;48.23;;;29.00;;
20593;SDS011;10455;48.732;10.266;2023-03-01T22:15:28;49.97;;;30.83;;
20593;SDS011;10455;48.732;10.266;2023-03-01T22:20:31;44.43;;;28.43;;
20593;SDS011;10455;48.732;10.266;2023-03-01T22:25:38;50.40;;;31.73;;
20593;SDS011;10455;48.732;10.266;2023-03-01T22:30:41;46.93;;;29.93;;
20593;SDS011;10455;48.732;10.266;2023-03-01T22:35:45;52.37;;;32.70;;
20593;SDS011;10455;48.732;10.266;2023-03-01T22:40:54;47.73;;;30.10;;
20593;SDS011;10455;48.732;10.266;2023-03-01T22:45:56;51.20;;;31.40;;
20593;SDS011;10455;48.732;10.266;2023-03-01T22:51:00;55.97;;;33.20;;
20593;SDS011;10455;48.732;10.266;2023-03-01T22:56:09;54.57;;;34.23;;
20593;SDS011;10455;48.732;10.266;2023-03-01T23:01:15;51.50;;;31.57;;
20593;SDS011;10455;48.732;10.266;2023-03-01T23:06:20;52.23;;;30.67;;
20593;SDS011;10455;48.732;10.266;2023-03-01T23:11:24;53.00;;;31.60;;
20593;SDS011;10455;48.732;10.266;2023-03-01T23:16:27;60.43;;;33.53;;
20593;SDS011;10455;48.732;10.266;2023-03-01T23:21:30;61.30;;;34.77;;
20593;SDS011;10455;48.732;10.266;2023-03-01T23:26:33;58.57;;;34.70;;
20593;SDS011;10455;48.732;10.266;2023-03-01T23:31:35;68.23;;;39.20;;
20593;SDS011;10455;48.732;10.266;2023-03-01T23:36:39;55.00;;;34.40;;
20593;SDS011;10455;48.732;10.266;2023-03-01T23:41:44;54.80;;;34.67;;
20593;SDS011;10455;48.732;10.266;2023-03-01T23:46:47;58.03;;;34.80;;
20593;SDS011;10455;48.732;10.266;2023-03-01T23:51:51;53.67;;;31.83;;
20593;SDS011;10455;48.732;10.266;2023-03-01T23:56:52;59.07;;;32.30;;
